Time;durP1;ratioP1;P1;durP2;ratioP2;P2;SDS_P1;SDS_P2;PMS_P1;PMS_P2;Temp;Humidity;BMP_temperature;BMP_pressure;BME280_temperature;BME280_humidity;BME280_pressure;Samples;Min_cycle;Max_cycle;Signal;HPM_P1;HPM_P2
2022/01/04 00:01:48;;;;;;;1.35;0.90;;;10.80;97.10;;;;;;5055531;28;20227;-81
2022/01/04 00:04:16;;;;;;;1.80;1.27;;;10.80;97.40;;;;;;5055806;28;20262;-79
2022/01/04 00:06:44;;;;;;;2.47;1.48;;;10.70;97.80;;;;;;5055498;28;20238;-80
2022/01/04 00:09:13;;;;;;;2.70;1.33;;;10.80;98.30;;;;;;5057752;28;20187;-81
2022/01/04 00:11:57;;;;;;;1.45;1.13;;;10.70;98.00;;;;;;5058129;28;20207;-81
2022/01/04 00:14:24;;;;;;;2.08;1.33;;;10.80;98.20;;;;;;5059039;28;20262;-80
2022/01/04 00:16:54;;;;;;;4.22;1.70;;;10.70;98.60;;;;;;5058694;28;20211;-80
2022/01/04 00:19:22;;;;;;;4.05;1.20;;;10.70;98.70;;;;;;5059216;28;20199;-79
2022/01/04 00:21:49;;;;;;;4.07;1.70;;;10.70;98.70;;;;;;5059475;28;20203;-80
2022/01/04 00:24:17;;;;;;;2.10;1.63;;;10.70;98.70;;;;;;5057634;28;20223;-81
2022/01/04 00:26:44;;;;;;;3.10;1.50;;;10.80;98.70;;;;;;5056368;28;20573;-82
2022/01/04 00:29:11;;;;;;;2.20;1.30;;;10.70;98.70;;;;;;5058439;28;20207;-80
2022/01/04 00:31:39;;;;;;;1.63;1.25;;;10.80;98.80;;;;;;5058859;28;20199;-81
2022/01/04 00:34:06;;;;;;;4.15;1.55;;;10.70;98.80;;;;;;5058388;28;20273;-80
2022/01/04 00:36:33;;;;;;;2.45;1.50;;;10.70;99.20;;;;;;5058477;28;20191;-79
2022/01/04 00:39:00;;;;;;;1.75;1.55;;;10.70;99.00;;;;;;5059395;28;20191;-83
2022/01/04 00:41:28;;;;;;;1.65;1.55;;;10.60;98.70;;;;;;5059338;28;20191;-80
2022/01/04 00:43:55;;;;;;;1.50;1.38;;;10.70;99.20;;;;;;5058555;28;20227;-81
2022/01/04 00:46:22;;;;;;;1.80;1.40;;;10.60;99.90;;;;;;5056976;28;20231;-79
2022/01/04 00:51:34;;;;;;;2.30;1.60;;;10.60;99.90;;;;;;5057735;28;20178;-80
2022/01/04 00:54:01;;;;;;;4.20;1.25;;;10.60;99.80;;;;;;5054142;28;20243;-80
2022/01/04 00:56:29;;;;;;;1.17;1.02;;;10.60;99.70;;;;;;5054905;28;20231;-82
2022/01/04 00:58:57;;;;;;;1.75;1.35;;;10.60;99.70;;;;;;5053679;28;20207;-80
2022/01/04 01:01:24;;;;;;;5.38;1.63;;;10.60;99.60;;;;;;5053243;28;20572;-80
2022/01/04 01:03:51;;;;;;;2.67;1.42;;;10.60;99.70;;;;;;5052651;28;20253;-80
2022/01/04 01:06:18;;;;;;;1.42;1.30;;;10.60;99.90;;;;;;5054821;28;20199;-80
2022/01/04 01:08:45;;;;;;;2.80;1.40;;;10.60;99.90;;;;;;5057388;28;20251;-81
2022/01/04 01:11:12;;;;;;;1.20;1.10;;;10.60;99.90;;;;;;5058535;28;20207;-81
2022/01/04 01:13:43;;;;;;;4.95;1.48;;;10.60;99.90;;;;;;5058259;28;20283;-81
2022/01/04 01:16:10;;;;;;;1.70;1.60;;;10.60;99.90;;;;;;5058487;28;20225;-82
2022/01/04 01:18:38;;;;;;;2.40;1.30;;;10.60;99.90;;;;;;5056051;28;20223;-81
2022/01/04 01:21:06;;;;;;;1.70;1.25;;;10.50;99.90;;;;;;5054334;28;20207;-81
2022/01/04 01:23:33;;;;;;;4.15;1.50;;;10.60;99.90;;;;;;5053500;28;20231;-80
2022/01/04 01:26:01;;;;;;;4.10;1.17;;;10.60;99.90;;;;;;5054055;28;20709;-80
2022/01/04 01:28:28;;;;;;;2.28;1.52;;;10.50;99.90;;;;;;5051695;28;20667;-81
2022/01/04 01:30:56;;;;;;;1.40;1.20;;;10.50;99.90;;;;;;5045350;28;20283;-80
2022/01/04 01:33:24;;;;;;;1.52;1.15;;;10.50;99.90;;;;;;5053710;28;20218;-80
2022/01/04 01:35:52;;;;;;;3.10;1.45;;;10.60;99.90;;;;;;5053208;28;20223;-80
2022/01/04 01:38:19;;;;;;;4.03;1.85;;;10.50;99.90;;;;;;5053787;28;20218;-78
2022/01/04 01:40:47;;;;;;;2.00;1.55;;;10.60;99.90;;;;;;5054243;28;20287;-80
2022/01/04 01:43:15;;;;;;;2.20;1.52;;;10.50;99.90;;;;;;5054700;28;20223;-81
2022/01/04 01:45:42;;;;;;;1.42;1.30;;;10.50;99.90;;;;;;5054565;28;20254;-80
2022/01/04 01:48:11;;;;;;;1.67;1.58;;;10.50;99.90;;;;;;5056107;28;20270;-80
2022/01/04 01:50:41;;;;;;;2.17;1.45;;;10.50;99.90;;;;;;5055834;28;20242;-81
2022/01/04 01:53:09;;;;;;;2.55;1.50;;;10.50;99.90;;;;;;5047494;28;20207;-82
2022/01/04 01:55:36;;;;;;;1.83;1.50;;;10.50;99.90;;;;;;5048723;28;20251;-82
2022/01/04 01:58:05;;;;;;;5.60;1.75;;;10.50;99.90;;;;;;5053685;28;20195;-80
2022/01/04 02:00:32;;;;;;;1.85;1.60;;;10.50;99.90;;;;;;5052844;28;20210;-81
2022/01/04 02:03:02;;;;;;;2.05;1.58;;;10.50;99.90;;;;;;5053179;28;20223;-80
2022/01/04 02:05:31;;;;;;;1.40;1.30;;;10.50;99.90;;;;;;5052464;28;20277;-80
2022/01/04 02:07:59;;;;;;;2.65;1.98;;;10.50;99.90;;;;;;5054170;28;20269;-79
2022/01/04 02:10:27;;;;;;;2.33;1.50;;;10.50;99.90;;;;;;5052657;28;20656;-81
2022/01/04 02:12:54;;;;;;;1.60;1.50;;;10.50;99.90;;;;;;5054553;28;20203;-80
2022/01/04 02:15:23;;;;;;;2.55;1.85;;;10.50;99.90;;;;;;5052853;28;20229;-80
2022/01/04 02:17:50;;;;;;;2.42;1.90;;;10.50;99.90;;;;;;5051253;28;20210;-80
2022/01/04 02:20:20;;;;;;;3.33;1.75;;;10.50;99.90;;;;;;5053189;28;20207;-80
2022/01/04 02:22:48;;;;;;;2.58;1.63;;;10.50;99.90;;;;;;5050932;28;20229;-79
2022/01/04 02:25:15;;;;;;;2.22;1.70;;;10.50;99.90;;;;;;5052249;28;20231;-80
2022/01/04 02:27:43;;;;;;;2.22;1.92;;;10.50;99.90;;;;;;5051568;28;20262;-80
2022/01/04 02:30:13;;;;;;;1.60;1.50;;;10.50;99.90;;;;;;5053064;28;20275;-82
2022/01/04 02:32:40;;;;;;;2.15;1.70;;;10.50;99.90;;;;;;5051220;28;20586;-80
2022/01/04 02:35:08;;;;;;;1.85;1.75;;;10.50;99.90;;;;;;5052188;28;20233;-80
2022/01/04 02:37:36;;;;;;;1.98;1.85;;;10.40;99.90;;;;;;5051546;28;20218;-79
2022/01/04 02:40:05;;;;;;;1.85;1.70;;;10.50;99.90;;;;;;5052459;28;20195;-80
2022/01/04 02:42:32;;;;;;;2.42;1.65;;;10.40;99.90;;;;;;5047895;28;20238;-80
2022/01/04 02:45:00;;;;;;;4.32;2.10;;;10.40;99.90;;;;;;5052953;28;20219;-80
2022/01/04 02:47:28;;;;;;;2.65;1.80;;;10.40;99.90;;;;;;5053931;28;20207;-79
2022/01/04 02:49:55;;;;;;;2.03;1.45;;;10.40;99.90;;;;;;5053174;28;20207;-80
2022/01/04 02:52:22;;;;;;;1.90;1.75;;;10.40;99.90;;;;;;5052518;28;20207;-79
2022/01/04 02:54:51;;;;;;;3.30;1.92;;;10.40;99.90;;;;;;5051095;28;20652;-79
2022/01/04 02:57:18;;;;;;;1.83;1.73;;;10.40;99.90;;;;;;5039772;28;20211;-80
2022/01/04 02:59:44;;;;;;;2.35;1.80;;;10.40;99.90;;;;;;5039986;28;20628;-80
2022/01/04 03:02:11;;;;;;;2.20;2.00;;;10.50;99.90;;;;;;5039791;28;20219;-80
2022/01/04 03:04:38;;;;;;;1.95;1.85;;;10.40;99.90;;;;;;5039677;28;20251;-81
2022/01/04 03:07:05;;;;;;;1.88;1.75;;;10.40;99.90;;;;;;5040414;28;20299;-80
2022/01/04 03:09:32;;;;;;;3.15;2.00;;;10.40;99.90;;;;;;5039808;28;20211;-80
2022/01/04 03:12:00;;;;;;;5.50;2.15;;;10.40;99.90;;;;;;5040301;28;20211;-80
2022/01/04 03:14:27;;;;;;;2.83;2.10;;;10.40;99.90;;;;;;5040137;28;20255;-80
2022/01/04 03:16:54;;;;;;;2.65;2.25;;;10.40;99.90;;;;;;5041073;28;20297;-81
2022/01/04 03:19:21;;;;;;;1.63;1.52;;;10.40;99.90;;;;;;5041609;28;20239;-80
2022/01/04 03:21:48;;;;;;;2.75;1.85;;;10.40;99.90;;;;;;5044893;28;20210;-80
2022/01/04 03:24:16;;;;;;;4.20;2.25;;;10.40;99.90;;;;;;5049880;28;20254;-80
2022/01/04 03:26:43;;;;;;;2.00;1.80;;;10.40;99.90;;;;;;5051118;28;20207;-80
2022/01/04 03:29:14;;;;;;;2.95;2.05;;;10.40;99.90;;;;;;5048104;28;20265;-80
2022/01/04 03:31:43;;;;;;;2.17;2.00;;;10.40;99.90;;;;;;5044201;28;20229;-81
2022/01/04 03:34:11;;;;;;;3.78;1.77;;;10.40;99.90;;;;;;5049965;28;20313;-80
2022/01/04 03:36:39;;;;;;;2.90;2.10;;;10.30;99.90;;;;;;5046585;28;20207;-79
2022/01/04 03:39:08;;;;;;;1.88;1.75;;;10.40;99.90;;;;;;5041363;28;20210;-80
2022/01/04 03:41:37;;;;;;;2.78;1.67;;;10.40;99.90;;;;;;5044574;28;20207;-80
2022/01/04 03:44:05;;;;;;;4.32;2.00;;;10.40;99.90;;;;;;5059317;28;20223;-80
2022/01/04 03:46:33;;;;;;;1.83;1.70;;;10.40;99.90;;;;;;5053288;28;20662;-79
2022/01/04 03:49:00;;;;;;;2.10;1.85;;;10.40;99.90;;;;;;5054673;28;20200;-81
2022/01/04 03:51:27;;;;;;;2.30;2.10;;;10.40;99.90;;;;;;5060011;28;20183;-81
2022/01/04 03:53:54;;;;;;;1.45;1.35;;;10.40;99.90;;;;;;5053716;28;20326;-80
2022/01/04 03:56:21;;;;;;;2.03;1.73;;;10.40;99.90;;;;;;5043700;28;20207;-81
2022/01/04 03:58:48;;;;;;;2.40;1.80;;;10.40;99.90;;;;;;5043609;28;20286;-80
2022/01/04 04:01:15;;;;;;;2.90;1.83;;;10.40;99.90;;;;;;5044829;28;20211;-81
2022/01/04 04:03:47;;;;;;;4.80;2.00;;;10.40;99.90;;;;;;5047578;28;20234;-80
2022/01/04 04:06:14;;;;;;;2.25;1.80;;;10.40;99.90;;;;;;5054768;28;20196;-79
2022/01/04 04:08:41;;;;;;;1.98;1.67;;;10.40;99.90;;;;;;5057560;28;20227;-79
2022/01/04 04:11:08;;;;;;;3.35;1.80;;;10.40;99.90;;;;;;5059783;28;20221;-79
2022/01/04 04:13:35;;;;;;;2.70;1.58;;;10.40;99.90;;;;;;5049431;28;20257;-79
2022/01/04 04:16:02;;;;;;;2.13;1.83;;;10.40;99.90;;;;;;5054797;28;20218;-80
2022/01/04 04:18:29;;;;;;;2.53;1.73;;;10.40;99.90;;;;;;5056605;28;20726;-78
2022/01/04 04:20:57;;;;;;;4.30;1.48;;;10.40;99.90;;;;;;5057419;28;20199;-79
2022/01/04 04:23:24;;;;;;;1.50;1.40;;;10.40;99.90;;;;;;5052738;28;20230;-80
2022/01/04 04:25:51;;;;;;;1.77;1.67;;;10.40;99.90;;;;;;5047711;28;20223;-80
2022/01/04 04:28:22;;;;;;;2.17;1.73;;;10.40;99.90;;;;;;5051072;28;20203;-81
2022/01/04 04:30:51;;;;;;;2.60;1.30;;;10.40;99.90;;;;;;5046388;28;20272;-79
2022/01/04 04:33:18;;;;;;;1.77;1.52;;;10.40;99.90;;;;;;5046636;28;20234;-81
2022/01/04 04:35:45;;;;;;;1.80;1.02;;;10.40;99.90;;;;;;5059402;22;20237;-77
2022/01/04 04:38:13;;;;;;;2.42;1.48;;;10.40;99.90;;;;;;5043119;28;20199;-77
2022/01/04 04:40:40;;;;;;;1.70;1.60;;;10.40;99.90;;;;;;5046655;28;20302;-78
2022/01/04 04:43:07;;;;;;;1.50;1.40;;;10.40;99.90;;;;;;5045095;28;20233;-78
2022/01/04 04:45:34;;;;;;;6.18;1.85;;;10.40;99.90;;;;;;5043889;28;20237;-76
2022/01/04 04:48:01;;;;;;;1.45;1.35;;;10.40;99.90;;;;;;5042181;28;20296;-77
2022/01/04 04:50:29;;;;;;;1.90;1.30;;;10.40;99.90;;;;;;5025904;28;20232;-76
2022/01/04 04:52:58;;;;;;;1.40;1.23;;;10.40;99.90;;;;;;5032200;28;20200;-76
2022/01/04 04:55:27;;;;;;;1.73;1.23;;;10.40;99.90;;;;;;5032926;28;20346;-77
2022/01/04 04:57:53;;;;;;;1.83;1.40;;;10.50;99.90;;;;;;5030077;28;20200;-79
2022/01/04 05:00:20;;;;;;;1.30;1.20;;;10.50;99.90;;;;;;5031886;28;20219;-76
2022/01/04 05:02:47;;;;;;;1.33;1.23;;;10.50;99.90;;;;;;5046356;28;20206;-77
2022/01/04 05:05:14;;;;;;;2.10;1.83;;;10.50;99.90;;;;;;5030979;28;20255;-75
2022/01/04 05:07:41;;;;;;;1.27;1.13;;;10.50;99.90;;;;;;5035296;28;20213;-75
2022/01/04 05:10:09;;;;;;;1.40;1.15;;;10.50;99.90;;;;;;5026443;28;20229;-77
2022/01/04 05:12:37;;;;;;;0.80;0.80;;;10.50;99.90;;;;;;5024897;28;20612;-77
2022/01/04 05:15:05;;;;;;;2.40;1.20;;;10.50;99.90;;;;;;5042617;28;20299;-75
2022/01/04 05:17:32;;;;;;;1.20;1.10;;;10.50;99.90;;;;;;5043239;28;20227;-77
2022/01/04 05:20:00;;;;;;;1.25;1.00;;;10.50;99.90;;;;;;5023639;28;20215;-79
2022/01/04 05:22:27;;;;;;;1.25;1.15;;;10.50;99.90;;;;;;5041776;28;20675;-79
2022/01/04 05:24:54;;;;;;;1.60;1.05;;;10.60;99.90;;;;;;5036692;28;20256;-77
2022/01/04 05:27:21;;;;;;;1.70;0.95;;;10.50;99.90;;;;;;5034181;28;20668;-77
2022/01/04 05:29:49;;;;;;;0.98;0.98;;;10.60;99.90;;;;;;5043110;28;20219;-77
2022/01/04 05:32:17;;;;;;;1.10;1.10;;;10.60;99.90;;;;;;5042536;28;20257;-77
2022/01/04 05:34:44;;;;;;;1.50;1.40;;;10.60;99.90;;;;;;5049546;28;20231;-76
2022/01/04 05:37:11;;;;;;;2.58;1.25;;;10.50;99.90;;;;;;5051765;28;20274;-76
2022/01/04 05:39:37;;;;;;;1.35;1.15;;;10.60;99.90;;;;;;5050735;28;20207;-78
2022/01/04 05:42:06;;;;;;;3.58;1.80;;;10.60;99.90;;;;;;5052150;28;20208;-77
2022/01/04 05:44:33;;;;;;;2.67;1.10;;;10.60;99.90;;;;;;5050503;28;20366;-77
2022/01/04 05:47:01;;;;;;;1.40;1.30;;;10.60;99.90;;;;;;5043078;28;20693;-77
2022/01/04 05:49:28;;;;;;;1.90;1.55;;;10.60;99.90;;;;;;5043550;28;20581;-78
2022/01/04 05:51:55;;;;;;;1.85;1.38;;;10.60;99.90;;;;;;5042449;28;20234;-78
2022/01/04 05:54:22;;;;;;;1.33;1.23;;;10.60;99.90;;;;;;5042564;28;20586;-77
2022/01/04 05:56:49;;;;;;;1.98;1.20;;;10.60;99.90;;;;;;5041939;28;20219;-78
2022/01/04 05:59:16;;;;;;;1.67;1.17;;;10.70;99.90;;;;;;5042495;28;20359;-80
2022/01/04 06:01:43;;;;;;;1.38;1.00;;;10.70;99.90;;;;;;5042154;28;20241;-78
2022/01/04 06:04:12;;;;;;;1.45;1.35;;;10.70;99.90;;;;;;5046798;28;20235;-78
2022/01/04 06:06:40;;;;;;;2.05;1.50;;;10.70;99.90;;;;;;5047420;28;20211;-77
2022/01/04 06:09:08;;;;;;;1.00;1.00;;;10.70;99.90;;;;;;5046841;28;20221;-78
2022/01/04 06:11:56;;;;;;;1.70;1.20;;;10.70;99.90;;;;;;5045285;28;20207;-75
2022/01/04 06:17:09;;;;;;;1.85;0.95;;;10.80;99.90;;;;;;5045072;28;20247;-77
2022/01/04 06:19:38;;;;;;;1.58;1.30;;;10.80;99.90;;;;;;5042142;28;20249;-77
2022/01/04 06:22:05;;;;;;;1.50;1.40;;;10.80;99.90;;;;;;5043290;28;20203;-77
2022/01/04 06:24:32;;;;;;;1.20;1.10;;;10.80;99.90;;;;;;5044739;28;20235;-78
2022/01/04 06:26:59;;;;;;;2.30;1.50;;;10.90;99.90;;;;;;5045733;28;20213;-78
2022/01/04 06:29:27;;;;;;;1.65;1.25;;;10.90;99.90;;;;;;5044254;28;20203;-77
2022/01/04 06:31:54;;;;;;;1.40;1.30;;;10.90;99.90;;;;;;5042184;28;20214;-78
2022/01/04 06:34:21;;;;;;;4.35;1.35;;;10.90;99.90;;;;;;5042878;28;20248;-78
2022/01/04 06:36:49;;;;;;;2.20;1.45;;;10.90;99.90;;;;;;5041979;28;20227;-77
2022/01/04 06:39:16;;;;;;;2.15;1.50;;;10.90;99.90;;;;;;5042351;28;20210;-79
2022/01/04 06:41:43;;;;;;;2.95;1.35;;;11.00;99.90;;;;;;5042028;28;20242;-77
2022/01/04 06:44:10;;;;;;;1.10;1.10;;;11.00;99.90;;;;;;5041881;28;20231;-78
2022/01/04 06:46:38;;;;;;;1.40;1.30;;;11.00;99.90;;;;;;5045882;28;20203;-77
2022/01/04 06:49:05;;;;;;;1.65;1.55;;;11.00;99.90;;;;;;5045296;28;20597;-78
2022/01/04 06:51:32;;;;;;;1.33;1.20;;;11.00;99.90;;;;;;5041384;28;20278;-78
2022/01/04 06:54:00;;;;;;;1.40;1.30;;;11.10;99.90;;;;;;5040803;28;20289;-78
2022/01/04 06:56:27;;;;;;;1.00;1.00;;;11.10;99.90;;;;;;5040198;28;20203;-78
2022/01/04 06:58:54;;;;;;;1.88;1.10;;;11.10;99.90;;;;;;5040896;28;20249;-78
2022/01/04 07:01:22;;;;;;;1.75;1.25;;;11.10;99.90;;;;;;5042877;28;20211;-78
2022/01/04 07:03:49;;;;;;;1.60;1.50;;;11.10;99.90;;;;;;5045521;28;20290;-77
2022/01/04 07:06:16;;;;;;;1.20;1.10;;;11.10;99.90;;;;;;5042798;28;20227;-77
2022/01/04 07:08:43;;;;;;;1.17;1.08;;;11.10;99.90;;;;;;5042956;28;20203;-78
2022/01/04 07:11:11;;;;;;;1.30;1.20;;;11.10;99.90;;;;;;5041341;28;20244;-78
2022/01/04 07:13:38;;;;;;;1.73;0.90;;;11.10;99.90;;;;;;5043773;28;20231;-76
2022/01/04 07:16:06;;;;;;;1.05;1.05;;;11.20;99.90;;;;;;5042990;28;20245;-77
2022/01/04 07:18:34;;;;;;;2.17;1.08;;;11.20;99.90;;;;;;5045350;28;20214;-76
2022/01/04 07:21:01;;;;;;;1.85;1.00;;;11.20;99.90;;;;;;5045883;28;20211;-77
2022/01/04 07:23:28;;;;;;;1.75;1.52;;;11.20;99.90;;;;;;5050719;28;20207;-76
2022/01/04 07:25:55;;;;;;;1.60;1.50;;;11.20;99.90;;;;;;5047121;28;20230;-76
2022/01/04 07:28:24;;;;;;;1.25;1.10;;;11.20;99.90;;;;;;5051904;28;20206;-78
2022/01/04 07:30:51;;;;;;;1.67;1.58;;;11.30;99.90;;;;;;5047997;28;20211;-76
2022/01/04 07:33:18;;;;;;;1.13;1.02;;;11.30;99.90;;;;;;5043488;28;20233;-77
2022/01/04 07:35:46;;;;;;;1.92;1.10;;;11.30;99.90;;;;;;5043036;28;20242;-80
2022/01/04 07:38:13;;;;;;;1.55;1.02;;;11.30;99.90;;;;;;5044302;28;20554;-76
2022/01/04 07:40:40;;;;;;;4.32;1.50;;;11.30;99.90;;;;;;5046809;28;20314;-77
2022/01/04 07:43:07;;;;;;;1.50;1.30;;;11.30;99.90;;;;;;5043622;28;20738;-78
2022/01/04 07:45:36;;;;;;;1.00;0.93;;;11.30;99.90;;;;;;5046671;28;20291;-78
2022/01/04 07:48:05;;;;;;;1.10;1.00;;;11.40;99.90;;;;;;5046853;28;20241;-77
2022/01/04 07:50:32;;;;;;;1.65;1.50;;;11.40;99.90;;;;;;5044515;28;20297;-79
2022/01/04 07:52:59;;;;;;;2.15;1.63;;;11.40;99.90;;;;;;5044104;28;20278;-77
2022/01/04 07:55:26;;;;;;;2.22;1.30;;;11.40;99.90;;;;;;5043210;28;20231;-78
2022/01/04 07:57:53;;;;;;;1.27;1.17;;;11.40;99.90;;;;;;5043112;28;20213;-78
2022/01/04 08:00:20;;;;;;;2.45;1.45;;;11.50;99.90;;;;;;5042951;28;20211;-78
2022/01/04 08:02:49;;;;;;;1.27;1.17;;;11.40;99.90;;;;;;5043372;28;20238;-77
2022/01/04 08:05:16;;;;;;;2.47;1.45;;;11.50;99.90;;;;;;5043590;28;20254;-78
2022/01/04 08:07:42;;;;;;;2.20;1.33;;;11.50;99.90;;;;;;5046275;28;20230;-78
2022/01/04 08:10:10;;;;;;;1.98;1.60;;;11.50;99.90;;;;;;5048538;28;20282;-79
2022/01/04 08:12:38;;;;;;;1.80;1.20;;;11.50;99.90;;;;;;5046949;28;20242;-78
2022/01/04 08:15:05;;;;;;;5.53;1.73;;;11.50;99.90;;;;;;5040508;28;20231;-77
2022/01/04 08:17:32;;;;;;;2.13;1.23;;;11.50;99.90;;;;;;5045306;28;20350;-78
2022/01/04 08:20:01;;;;;;;1.70;1.30;;;11.50;99.90;;;;;;5045190;28;20226;-78
2022/01/04 08:22:32;;;;;;;1.95;1.40;;;11.50;99.90;;;;;;5044967;28;20270;-77
2022/01/04 08:25:00;;;;;;;1.42;1.20;;;11.50;99.90;;;;;;5045159;28;20250;-77
2022/01/04 08:27:27;;;;;;;2.97;1.30;;;11.50;99.90;;;;;;5048976;28;20286;-78
2022/01/04 08:29:55;;;;;;;3.65;1.75;;;11.50;99.90;;;;;;5044243;28;20302;-78
2022/01/04 08:32:22;;;;;;;1.85;1.33;;;11.50;99.90;;;;;;5046041;28;20203;-77
2022/01/04 08:34:49;;;;;;;1.90;1.38;;;11.50;99.90;;;;;;5047019;28;20261;-79
2022/01/04 08:37:17;;;;;;;3.05;1.05;;;11.50;99.90;;;;;;5047305;28;20278;-78
2022/01/04 08:39:44;;;;;;;4.18;1.60;;;11.50;99.90;;;;;;5046742;28;20217;-78
2022/01/04 08:42:11;;;;;;;2.72;1.70;;;11.50;99.90;;;;;;5048262;28;20639;-78
2022/01/04 08:44:39;;;;;;;1.30;1.20;;;11.60;99.90;;;;;;5048539;28;20235;-76
2022/01/04 08:47:07;;;;;;;1.27;1.23;;;11.60;99.90;;;;;;5045928;28;20207;-79
2022/01/04 08:49:34;;;;;;;3.63;1.40;;;11.60;99.90;;;;;;5045633;28;20242;-77
2022/01/04 08:52:01;;;;;;;1.67;1.58;;;11.60;99.90;;;;;;5046927;28;20215;-79
2022/01/04 08:54:29;;;;;;;1.98;1.20;;;11.60;99.90;;;;;;5042156;28;20698;-77
2022/01/04 08:56:56;;;;;;;2.25;1.63;;;11.60;99.90;;;;;;5043689;28;20238;-79
2022/01/04 08:59:24;;;;;;;5.20;1.38;;;11.60;99.90;;;;;;5043719;28;20271;-77
2022/01/04 09:01:51;;;;;;;1.17;1.08;;;11.60;99.90;;;;;;5045538;28;20215;-77
2022/01/04 09:04:18;;;;;;;2.45;1.40;;;11.60;99.90;;;;;;5044728;28;20223;-80
2022/01/04 09:06:45;;;;;;;2.38;2.00;;;11.60;99.90;;;;;;5045317;28;20269;-78
2022/01/04 09:09:12;;;;;;;1.77;1.23;;;11.60;99.90;;;;;;5045722;28;20218;-77
2022/01/04 09:11:40;;;;;;;1.90;1.45;;;11.60;99.90;;;;;;5043987;28;20211;-79
2022/01/04 09:14:23;;;;;;;2.20;1.30;;;11.70;99.90;;;;;;5046306;28;20265;-77
2022/01/04 09:19:35;;;;;;;1.15;1.05;;;11.70;99.90;;;;;;5046137;28;20286;-78
2022/01/04 09:22:02;;;;;;;2.38;1.10;;;11.60;99.90;;;;;;5045730;28;20210;-78
2022/01/04 09:24:29;;;;;;;1.30;1.20;;;11.60;99.90;;;;;;5047417;28;20214;-78
2022/01/04 09:26:58;;;;;;;2.88;1.35;;;11.70;99.90;;;;;;5055203;28;20740;-79
2022/01/04 09:29:25;;;;;;;4.05;1.67;;;11.60;99.90;;;;;;5049876;28;20618;-79
2022/01/04 09:31:55;;;;;;;3.55;1.67;;;11.60;99.90;;;;;;5048320;28;20289;-78
2022/01/04 09:34:22;;;;;;;2.70;1.15;;;11.70;99.90;;;;;;5049104;28;20246;-77
2022/01/04 09:36:49;;;;;;;1.67;1.40;;;11.70;99.90;;;;;;5047727;28;20223;-79
2022/01/04 09:39:21;;;;;;;1.35;1.15;;;11.70;99.90;;;;;;5048178;28;20234;-76
2022/01/04 09:41:49;;;;;;;2.10;1.45;;;11.70;99.90;;;;;;5044741;28;20214;-77
2022/01/04 09:44:18;;;;;;;2.25;1.15;;;11.70;99.90;;;;;;5051413;28;20290;-77
2022/01/04 09:46:45;;;;;;;1.30;1.20;;;11.70;99.90;;;;;;5050229;28;20223;-79
2022/01/04 09:49:14;;;;;;;2.33;1.80;;;11.70;99.90;;;;;;5053476;28;20270;-77
2022/01/04 09:51:42;;;;;;;1.15;1.10;;;11.70;99.90;;;;;;5055496;28;20206;-77
2022/01/04 09:54:09;;;;;;;2.20;1.90;;;11.70;99.90;;;;;;5044873;28;20312;-77
2022/01/04 09:56:36;;;;;;;1.98;1.48;;;11.70;99.90;;;;;;5044567;28;20290;-78
2022/01/04 09:59:04;;;;;;;1.88;1.50;;;11.70;99.90;;;;;;5043220;28;20208;-78
2022/01/04 10:01:38;;;;;;;3.97;1.90;;;11.70;99.90;;;;;;5045301;28;20253;-77
2022/01/04 10:04:06;;;;;;;1.67;1.40;;;11.70;99.90;;;;;;5046078;28;20859;-79
2022/01/04 10:06:33;;;;;;;1.70;1.50;;;11.70;99.90;;;;;;5046777;28;20245;-78
2022/01/04 10:09:03;;;;;;;1.60;1.48;;;11.80;99.90;;;;;;5046842;28;20380;-76
2022/01/04 10:11:31;;;;;;;4.05;1.92;;;11.80;99.90;;;;;;5045587;28;20754;-79
2022/01/04 10:14:00;;;;;;;5.50;2.35;;;11.80;99.90;;;;;;5048015;28;20215;-78
2022/01/04 10:16:27;;;;;;;4.15;2.70;;;11.70;99.90;;;;;;5048224;28;20230;-77
2022/01/04 10:18:55;;;;;;;3.20;2.42;;;11.80;99.90;;;;;;5051445;28;20207;-78
2022/01/04 10:21:22;;;;;;;6.95;2.40;;;11.80;99.90;;;;;;5051715;28;20195;-78
2022/01/04 10:23:52;;;;;;;4.80;2.42;;;11.80;99.90;;;;;;5050954;28;20271;-77
2022/01/04 10:26:32;;;;;;;3.47;1.90;;;11.80;99.90;;;;;;5052512;28;20320;-77
2022/01/04 10:28:59;;;;;;;3.72;2.38;;;11.80;99.90;;;;;;5052160;28;20231;-77
2022/01/04 10:31:26;;;;;;;6.10;2.60;;;11.80;99.90;;;;;;5051077;28;20208;-77
2022/01/04 10:33:55;;;;;;;2.80;2.00;;;11.80;99.90;;;;;;5052181;28;20290;-77
2022/01/04 10:36:25;;;;;;;3.15;2.15;;;11.80;99.90;;;;;;5053982;28;20211;-76
2022/01/04 10:38:52;;;;;;;5.35;2.63;;;11.80;99.90;;;;;;5052802;28;20282;-77
2022/01/04 10:41:23;;;;;;;3.50;2.50;;;11.80;99.90;;;;;;5052534;28;20220;-78
2022/01/04 10:43:53;;;;;;;3.10;1.95;;;11.80;99.90;;;;;;5051389;28;20207;-76
2022/01/04 10:46:31;;;;;;;2.33;1.92;;;11.80;99.90;;;;;;5053967;28;20281;-77
2022/01/04 10:48:59;;;;;;;4.03;2.00;;;11.80;99.90;;;;;;5053748;28;20207;-77
2022/01/04 10:51:30;;;;;;;2.13;1.45;;;11.70;99.90;;;;;;5050995;28;20243;-77
2022/01/04 10:54:00;;;;;;;2.35;2.00;;;11.80;99.90;;;;;;5049618;28;20241;-77
2022/01/04 10:56:31;;;;;;;1.80;1.50;;;11.70;99.90;;;;;;5049407;28;20226;-79
2022/01/04 10:58:58;;;;;;;1.92;1.83;;;11.70;99.90;;;;;;5050565;28;20227;-78
2022/01/04 11:01:28;;;;;;;2.05;1.63;;;11.80;99.90;;;;;;5052205;28;20294;-77
2022/01/04 11:04:00;;;;;;;1.75;1.65;;;11.80;99.90;;;;;;5051834;28;20211;-77
2022/01/04 11:06:30;;;;;;;5.45;2.20;;;11.70;99.90;;;;;;5055029;28;20216;-75
2022/01/04 11:08:58;;;;;;;2.85;1.70;;;11.70;99.90;;;;;;5056141;28;20190;-76
2022/01/04 11:11:25;;;;;;;2.95;2.63;;;11.70;99.90;;;;;;5055460;28;20179;-77
2022/01/04 11:13:52;;;;;;;3.42;1.80;;;11.70;99.90;;;;;;5054682;28;20238;-76
2022/01/04 11:16:22;;;;;;;4.20;1.70;;;11.70;99.90;;;;;;5049243;28;20239;-77
2022/01/04 11:18:51;;;;;;;1.80;1.70;;;11.70;99.90;;;;;;5045190;28;20222;-77
2022/01/04 11:21:21;;;;;;;2.78;1.95;;;11.70;99.90;;;;;;5044424;28;20207;-78
2022/01/04 11:23:50;;;;;;;2.08;1.77;;;11.70;99.90;;;;;;5043475;28;20206;-77
2022/01/04 11:26:18;;;;;;;2.10;1.90;;;11.70;99.90;;;;;;5042504;28;20230;-78
2022/01/04 11:28:47;;;;;;;3.55;1.98;;;11.70;99.90;;;;;;5045051;28;20230;-77
2022/01/04 11:31:41;;;;;;;3.75;1.95;;;11.70;99.90;;;;;;5052600;28;20203;-76
2022/01/04 11:34:16;;;;;;;3.95;2.53;;;11.70;99.90;;;;;;5048011;28;20254;-77
2022/01/04 11:36:47;;;;;;;3.92;2.25;;;11.80;99.90;;;;;;5048245;28;20222;-77
2022/01/04 11:39:33;;;;;;;2.40;2.20;;;11.80;99.90;;;;;;5045310;28;20195;-77
2022/01/04 11:42:02;;;;;;;2.08;1.90;;;11.80;99.90;;;;;;5047844;28;20198;-77
2022/01/04 11:44:31;;;;;;;2.47;2.10;;;11.80;99.90;;;;;;5047525;28;20230;-77
2022/01/04 11:47:09;;;;;;;2.55;2.10;;;11.70;99.90;;;;;;5050622;28;20222;-77
2022/01/04 11:49:38;;;;;;;2.40;2.20;;;11.80;99.90;;;;;;5049288;28;20263;-78
2022/01/04 11:52:07;;;;;;;2.50;2.30;;;11.70;99.90;;;;;;5052453;28;20282;-78
2022/01/04 11:54:36;;;;;;;3.90;2.40;;;11.80;99.90;;;;;;5048119;28;20711;-78
2022/01/04 11:57:08;;;;;;;4.22;2.38;;;11.80;99.90;;;;;;5049205;28;20548;-78
2022/01/04 11:59:37;;;;;;;5.20;2.30;;;11.80;99.90;;;;;;5048107;28;20207;-78
2022/01/04 12:02:27;;;;;;;2.60;2.40;;;11.80;99.90;;;;;;5048302;28;20211;-77
2022/01/04 12:04:55;;;;;;;2.55;2.35;;;11.80;99.90;;;;;;5055697;28;20246;-75
2022/01/04 12:07:50;;;;;;;7.32;3.10;;;11.80;99.90;;;;;;5059870;28;20274;-76
2022/01/04 12:10:50;;;;;;;2.63;2.42;;;11.80;99.90;;;;;;5056026;28;20210;-76
2022/01/04 12:13:18;;;;;;;2.75;2.55;;;11.80;99.90;;;;;;5018892;28;20243;-76
2022/01/04 12:15:50;;;;;;;6.22;2.42;;;11.90;99.90;;;;;;5039247;28;20746;-77
2022/01/04 12:18:59;;;;;;;2.30;2.10;;;11.90;99.90;;;;;;5044247;28;20218;-77
2022/01/04 12:21:32;;;;;;;2.30;1.88;;;11.90;99.90;;;;;;5048393;28;20245;-78
2022/01/04 12:23:59;;;;;;;3.10;2.80;;;12.00;99.90;;;;;;5050143;28;20211;-77
2022/01/04 12:26:32;;;;;;;2.95;2.40;;;11.90;99.90;;;;;;5051970;28;20313;-78
2022/01/04 12:29:20;;;;;;;3.75;2.58;;;12.00;99.90;;;;;;5050138;28;20211;-77
2022/01/04 12:31:49;;;;;;;2.55;2.35;;;12.00;99.90;;;;;;5054626;28;20214;-77
2022/01/04 12:34:37;;;;;;;4.00;2.35;;;12.00;99.90;;;;;;5054997;28;20270;-76
2022/01/04 12:37:07;;;;;;;2.42;2.00;;;11.90;99.90;;;;;;5052397;28;20267;-77
2022/01/04 12:39:37;;;;;;;2.95;2.65;;;11.90;99.90;;;;;;5052330;28;20214;-77
2022/01/04 12:42:07;;;;;;;2.53;2.33;;;11.90;99.90;;;;;;5045783;28;20191;-77
2022/01/04 12:44:34;;;;;;;3.63;2.00;;;11.80;99.90;;;;;;5040055;28;20233;-77
2022/01/04 12:47:02;;;;;;;7.22;2.50;;;11.80;99.90;;;;;;5038594;28;20241;-77
2022/01/04 12:49:31;;;;;;;3.20;2.20;;;11.80;99.90;;;;;;5041174;28;20234;-77
2022/01/04 12:51:59;;;;;;;2.95;2.20;;;11.70;99.90;;;;;;5039164;28;20213;-78
2022/01/04 12:54:29;;;;;;;2.22;1.98;;;11.60;99.90;;;;;;5038022;28;20780;-77
2022/01/04 12:56:58;;;;;;;1.30;0.65;;;11.60;99.90;;;;;;5038624;28;20207;-77
2022/01/04 12:59:48;;;;;;;0.75;0.60;;;11.00;96.20;;;;;;5037618;28;20738;-77
2022/01/04 13:02:18;;;;;;;0.50;0.50;;;9.90;94.20;;;;;;5034775;28;20279;-76
2022/01/04 13:04:48;;;;;;;3.65;0.70;;;9.00;95.30;;;;;;5035983;28;20227;-77